Tiempo atmosférico en la estación meteorológica de A Pobra de Trives, Ourense (840 m.)



Fecha
DESCASC
Temp. máxima en grados centígrados (hora)
DESCASC
Temp. mínima en grados centígrados (hora)
DESCASC
Temp. media en grados centígrados
DESCASC
Racha de viento máxima en m/sg (hora)
DESCASC
Velocidad máxima media en intervalos de 10 minutos(hora)
DESCASC
Precipitaciones diarias en mm
DESCASC
Precipitaciones de 00:00 a 06:00 en mm
DESCASC
Precipitaciones de 06:00 a 12:00 en mm
DESCASC
Precipitaciones de 12:00 a 18:00 en mm
DESCASC
Precipitaciones de 18:00 a 24:00 en mm
DESCASC
05-04-2020 15 (13:30) 9.3 (06:20) 12.2 13.89 (00:50) 5.83 (01:00) 3.8 0 0.2 3.2 0.4
04-04-2020 17.3 (15:10) 3.7 (08:10) 10.5 13.89 (12:30) 6.94 (13:40) 0 0 0 0 0
03-04-2020 17.5 (18:50) 2.7 (02:50) 10.1 6.39 (13:50) 2.78 (12:50) 0 0 0 0 0
02-04-2020 15.7 (14:20) 3.2 (00:00) 9.4 9.44 (21:40) 4.72 (21:50) 0 0 0 0 0
01-04-2020 12.4 (13:40) 3.2 (00:00) 7.8 8.33 (16:10) 4.17 (02:20) 8.4 1.2 0 4 3.2
31-03-2020 7.2 (17:30) -1.9 (-00:0) 2.6 10.56 (11:50) 5.28 (11:50) 0.8 0 0 0 0.8
30-03-2020 8 (17:00) 0.1 (00:00) 4.1 11.94 (19:10) 6.39 (19:20) 0 0 0 0 0
29-03-2020 17.2 (15:40) 0.9 (00:00) 9.1 9.17 (19:10) 4.72 (16:10) 0 0 0 0 0
28-03-2020 16.2 (17:20) 0 (00:00) 8.1 7.5 (23:20) 3.89 (23:20) 0 0 0 0 0
27-03-2020 13 (16:40) -1.7 (-00:0) 5.6 8.33 (11:10) 5 (11:10) 0 0 0 0 0
26-03-2020 14.2 (16:00) 0.9 (00:00) 7.5 10 (16:30) 5.28 (12:10) 0 0 0 0 0
25-03-2020 18.1 (16:10) 4.4 (00:00) 11.3 10.56 (16:30) 4.72 (13:40) 0 0 0 0 0
24-03-2020 16.9 (17:10) 5.1 (00:00) 11 9.17 (10:50) 5 (10:50) 0 0 0 0 0
23-03-2020 15.7 (16:30) 3.8 (00:00) 9.7 7.22 (16:50) 3.89 (17:00) 0 0 0 0 0
22-03-2020 16.1 (14:00) 6 (07:40) 11.1 8.89 (15:20) 4.44 (15:20) 0 0 0 0 0
21-03-2020 12.2 (16:20) 7.9 (00:00) 10 8.33 (14:20) 4.17 (14:00) 0.4 0.2 0.2 0 0
20-03-2020 11.2 (17:00) 8.2 (00:00) 9.7 7.78 (17:00) 3.89 (15:30) 2.4 0.2 1.8 0.4 0
19-03-2020 19.1 (15:00) 7 (00:00) 13.1 7.78 (16:30) 3.33 (16:30) 3.2 0 0 1.2 2
18-03-2020 18.9 (16:40) 5.7 (00:00) 12.3 5.83 (05:20) 2.78 (06:30) 0 0 0 0 0
17-03-2020 15.9 (14:40) 0.7 (00:00) 8.3 10.28 (13:40) 5.56 (13:40) 0 0 0 0 0
16-03-2020 8.9 (16:10) 1.2 (00:00) 5 11.39 (06:40) 5 (16:30) 0.8 0.6 0.2 0 0
15-03-2020 14.8 (14:10) 1.1 (00:00) 8 12.5 (15:40) 6.11 (17:00) 6.4 0 0 4.4 2
14-03-2020 17.3 (16:50) 0.4 (00:00) 8.8 5.83 (17:40) 3.06 (01:20) 0 0 0 0 0
13-03-2020 13.4 (16:20) 4.5 (23:59) 8.9 8.89 (17:30) 4.72 (17:20) 0 0 0 0 0
12-03-2020 14 (16:00) 6.1 (00:00) 10 8.61 (17:30) 4.72 (18:40) 0 0 0 0 0
11-03-2020 22.5 (15:10) 4.4 (00:00) 13.5 9.72 (15:50) 4.17 (16:00) 0 0 0 0 0
10-03-2020 20.2 (14:30) 3.4 (00:00) 11.8 7.22 (14:30) 3.89 (21:40) 0 0 0 0 0

Gráficas

Temp. máximas Temp. mínimas Temp. medias Precipitaciones Rachas de viento máximas Velocidades máximas media en intervalos de 10 minutos

Datos horarios

Fecha y hora oficial Temperatura (ºC) Velocidad del viento (km/h) Dirección del viento Racha (km/h) Dirección de racha Precipitación (mm) Presión (hPa) Tendencia (hPa) Humedad (%)
2020-04-08 23:00:00 14.1 9 Oeste 15 Oeste 0 923.9 0.6 78
2020-04-08 22:00:00 14.9 8 Noroeste 13 Oeste 0 923.7 0.7 73
2020-04-08 21:00:00 15.7 10 Oeste 19 Oeste 0 923.3 0.3 64
2020-04-08 20:00:00 17 9 Oeste 17 Oeste 0 923.3 -0.1 51
2020-04-08 19:00:00 18.3 7 Noroeste 18 Oeste 0 923 -0.8 51
2020-04-08 18:00:00 18.6 8 Oeste 16 Oeste 0 923 -0.9 49
2020-04-08 17:00:00 18.9 6 Oeste 14 Sudeste 0 923.4 -1 47
2020-04-08 16:00:00 18.8 8 Este 27 Sudeste 0 923.8 -1.2 40
2020-04-08 15:00:00 20 13 Sudeste 32 Sur 0 923.9 -1.5 39
2020-04-08 14:00:00 20.6 6 Oeste 32 Sudeste 0 924.4 -1.3 43
2020-04-08 13:00:00 17.1 9 Nordeste 19 Este 0 925 -0.9 57
2020-04-08 12:00:00 15.8 12 Este 21 Este 0 925.4 -0.4 71
2020-04-08 11:00:00 13.4 10 Este 17 Este 0 925.7 0.2 79
2020-04-08 10:00:00 11.1 7 Este 12 Sudeste 0 925.9 0.4 84
2020-04-08 09:00:00 8.1 4 Norte 10 Noroeste 0 925.8 0.2 96
2020-04-08 08:00:00 6.9 5 Norte 9 Noroeste 0 925.5 -0.3 94
2020-04-08 07:00:00 7.2 7 Noroeste 14 Noroeste 0 925.5 -0.4 95
2020-04-08 06:00:00 7.3 8 Noroeste 13 Noroeste 0 925.6 -0.5 94
2020-04-08 05:00:00 7.9 8 Noroeste 13 Noroeste 0 925.8 -0.6 93
2020-04-08 04:00:00 8.6 7 Noroeste 12 Noroeste 0 925.9 -0.5 92
2020-04-08 03:00:00 9.4 6 Noroeste 8 Noroeste 0 926.1 -0.2 91
2020-04-08 02:00:00 10.6 5 Sudoeste 12 Oeste 0 926.4 0.3 90
2020-04-08 01:00:00 11.9 6 Noroeste 18 Oeste 0 926.4 0.8 88
2020-04-08 00:00:00 12.8 12 Oeste 22 Oeste 0 926.3 1.5 87
2020-04-07 23:00:00 13 8 Oeste 15 Sudoeste 0 926.1 1.6 82
2020-04-07 22:00:00 12.8 7 Sudoeste 15 Oeste 0 925.6 1.4 76
2020-04-07 21:00:00 14.3 7 Oeste 19 Oeste 0 924.8 0.6 66
2020-04-07 20:00:00 16.7 8 Oeste 23 Oeste 0 924.5 0.3 51
2020-04-07 19:00:00 18.1 9 Oeste 25 Sudoeste 0 924.2 -0.1 47
2020-04-07 18:00:00 18.9 13 Oeste 29 Sudoeste 0 924.2 -0.4 46
2020-04-07 17:00:00 18.3 9 Oeste 25 Sudoeste 0 924.2 -0.6 48
2020-04-07 16:00:00 17.5 11 Sudoeste 26 Sudoeste 0 924.3 -0.4 48
2020-04-07 15:00:00 16 4 Sudeste 32 Sudeste 0 924.6 -0.2 54
2020-04-07 14:00:00 15.6 8 Sur 35 Sudeste 0 924.8 0.1 57
2020-04-07 13:00:00 14.4 17 Este 34 Este 0 924.7 0.1 69
2020-04-07 12:00:00 14.4 15 Este 28 Este 0 924.8 0.5 80
2020-04-07 11:00:00 10.6 6 Nordeste 14 Este 0 924.7 0.7 93
2020-04-07 10:00:00 9.9 8 Este 15 Este 0 924.6 0.8 94
2020-04-07 09:00:00 9.1 7 Este 14 Nordeste 0 924.3 0.6 95
2020-04-07 08:00:00 8.6 5 Este 12 Nordeste 0 924 0.1 96
2020-04-07 07:00:00 8.6 6 Sudeste 14 Nordeste 0 923.8 -0.3 95
2020-04-07 06:00:00 8.5 7 Este 13 Este 0 923.7 -0.7 96
2020-04-07 05:00:00 8 5 Sudeste 14 Este 0 923.9 -0.5 96
2020-04-07 04:00:00 7.6 4 Sudeste 9 Este 0.2 924.1 0.1 96
2020-04-07 03:00:00 7.7 2 Norte 10 Norte 0 924.4 0.1 95
2020-04-07 02:00:00 8.3 4 Noroeste 11 Este 0 924.4 0.2 94
2020-04-07 01:00:00 8.7 7 Este 12 Este 0.2 924 -0.2 93
2020-04-07 00:00:00 9.2 4 Este 9 Noroeste 1 924.3 0.7 91
2020-04-06 23:00:00 9.6 3 Nordeste 7 Sudoeste 0 924.2 0.9 88
2020-04-06 22:00:00 9.9 3 Sudoeste 6 Norte 0 924.2 1.2 87
2020-04-06 21:00:00 10.2 3 Noroeste 10 Nordeste 0 923.6 0.6 85
2020-04-06 20:00:00 10.7 4 Nordeste 13 Nordeste 0 923.3 0.2 83
2020-04-06 19:00:00 11.1 9 Este 15 Este 0 923 -0.2 79
2020-04-06 18:00:00 11.3 4 Noroeste 12 Oeste 0 923 -0.3 78
2020-04-06 17:00:00 11.3 2 Sudeste 17 Este 0 923.1 0 77
2020-04-06 16:00:00 12.3 6 Este 11 Este 0 923.2 0.3 75
2020-04-06 15:00:00 11.8 4 Este 16 Nordeste 0 923.3 0.6 72
2020-04-06 14:00:00 12.7 8 Este 15 Este 0 923.1 0.5 74
2020-04-06 13:00:00 11.8 5 Este 13 Sudeste 0 922.9 0.6 79
2020-04-06 12:00:00 11.3 4 Este 12 Este 0 922.7 1 83
2020-04-06 11:00:00 9.9 2 Noroeste 10 Noroeste 0.4 922.6 2 92
2020-04-06 10:00:00 9.4 4 Noroeste 11 Oeste 0 922.3 2.5 95
2020-04-06 09:00:00 8.7 8 Oeste 22 Oeste 0.2 921.7 2.5 94
2020-04-06 08:00:00 8.5 9 Noroeste 18 Oeste 0 920.6 1.8 94
2020-04-06 07:00:00 8.6 9 Oeste 19 Noroeste 0 919.8 1.1 94
2020-04-06 06:00:00 8.8 6 Noroeste 16 Oeste 0 919.2 0.5 95
2020-04-06 05:00:00 8.9 8 Noroeste 17 Noroeste 0 918.8 0.4 95
2020-04-06 04:00:00 9.3 10 Oeste 20 Oeste 0.4 918.7 0.4 95
2020-04-06 03:00:00 10 7 Oeste 13 Oeste 0.2 918.7 0.5 95
2020-04-06 02:00:00 10.1 2 Noroeste 7 Noroeste 0.8 918.4 0.7 95
2020-04-06 01:00:00 10.2 5 Noroeste 9 Noroeste 0.2 918.3 1.2 95
2020-04-06 00:00:00 10.1 4 Noroeste 12 Noroeste 0 918.2 1.6 93
2020-04-05 23:00:00 10 5 Norte 11 Noroeste 0 917.7 1.5 93
2020-04-05 22:00:00 10.2 5 Noroeste 12 Sudeste 0.2 917.1 1.4 90
2020-04-05 21:00:00 10.7 4 Este 19 Este 0 916.6 0.9 85
2020-04-05 20:00:00 11.6 6 Nordeste 16 Este 0.2 916.2 0.3 88
2020-04-05 19:00:00 11.6 6 Este 19 Sudeste 0 915.7 -0.1 88
2020-04-05 18:00:00 11.3 7 Sudeste 22 Este 0.2 915.7 0.3 89
2020-04-05 17:00:00 11.3 6 Nordeste 17 Sudeste 1 915.9 0.3 90
2020-04-05 16:00:00 11 3 Nordeste 26 Sudeste 1.2 915.8 0.7 88
2020-04-05 15:00:00 11.7 8 Sudeste 34 Sur 0.8 915.4 -0.1 79
2020-04-05 14:00:00 13.5 18 Sudeste 41 Sudeste 0 915.6 0.3 70
2020-04-05 13:00:00 13.3 20 Sudeste 43 Sudeste 0 915.1 -0.3 72
2020-04-05 12:00:00 11.4 17 Sudeste 38 Sudeste 0 915.5 0.2 79
2020-04-05 11:00:00 10.2 14 Este 35 Sudeste 0.2 915.3 0.6 83
2020-04-05 10:00:00 10 14 Sur 39 Sudeste 0 915.4 1.1 85
2020-04-05 09:00:00 9.3 13 Sudeste 36 Sudeste 0 915.3 0.9 88
2020-04-05 08:00:00 9.7 14 Este 39 Sudeste 0 914.7 0.5 82
2020-04-05 07:00:00 10.1 19 Sudeste 41 Sudeste 0 914.3 -0.2 78
2020-04-05 06:00:00 9.6 13 Este 37 Sudoeste 0 914.4 -1.1 80
2020-04-05 05:00:00 10.1 12 Este 32 Sudeste 0 914.2 -1.3 72
2020-04-05 04:00:00 10.3 17 Este 41 Sudeste 0 914.5 -0.3 69
2020-04-05 03:00:00 10.4 12 Este 30 Sudeste 0 915.5 1.3 70
2020-04-05 02:00:00 10.6 17 Sudeste 40 Este 0 915.5 0.7 69
2020-04-05 01:00:00 11.3 21 Sur 50 Sur 0 914.8 -0.2 61
2020-04-05 00:00:00 11.4 16 Nordeste 46 Este 0 914.2 -0.9 59
2020-04-04 23:00:00 11.7 12 Este 41 Sudoeste 0 914.8 -0.1 57
2020-04-04 22:00:00 12.5 12 Sudeste 37 Sudoeste 0 915 0.3 49
2020-04-04 21:00:00 13 8 Sur 30 Sudeste 0 915.1 0.4 51
2020-04-04 20:00:00 13.9 15 Sur 42 Sur 0 914.9 0 44
2020-04-04 19:00:00 14.5 13 Sur 39 Sur 0 914.7 -0.4 43
2020-04-04 18:00:00 14.8 17 Sudeste 42 Sur 0 914.7 -1 40
2020-04-04 17:00:00 15.5 17 Sur 43 Sudeste 0 914.9 -1.3 37
2020-04-04 16:00:00 16.1 20 Sudeste 46 Sur 0 915.1 -1.6 37
2020-04-04 15:00:00 17 19 Sur 45 Sur 0 915.7 -1.2 31
2020-04-04 14:00:00 16 17 Sudeste 46 Sudeste 0 916.2 -1 35
2020-04-04 13:00:00 16.3 21 Sudeste 50 Sudeste 0 916.7 -0.6 35
2020-04-04 12:00:00 15.4 14 Sudeste 39 Sudeste 0 916.9 -0.1 40
2020-04-04 11:00:00 11.8 -- -- -- -- 0 917.2 0.4 55
2020-04-04 10:00:00 9.2 9 Este 17 Nordeste 0 917.3 0.5 67
2020-04-04 09:00:00 6.1 3 Noroeste 7 Norte 0 917 0 78
2020-04-04 08:00:00 3.8 3 Nordeste 9 Norte 0 916.8 -0.6 81
2020-04-04 07:00:00 4.6 5 Nordeste 16 Noroeste 0 916.8 -1 78
2020-04-04 06:00:00 5.1 7 Norte 16 Nordeste 0 917 -1.4 76
2020-04-04 05:00:00 5.7 7 Este 12 Este 0 917.4 -1.1 74
2020-04-04 04:00:00 6.4 7 Este 12 Este 0 917.8 -0.8 71
2020-04-04 03:00:00 6.7 7 Nordeste 12 Nordeste 0 918.4 -0.2 68
2020-04-04 02:00:00 7.8 6 Este 10 Sudeste 0 918.5 -0.1 63
2020-04-04 01:00:00 8.3 6 Sur 23 Nordeste 0 918.6 0.3 61
2020-04-04 00:00:00 8.3 6 Oeste 16 Noroeste 0 918.6 0.9 62
2020-04-03 23:00:00 8.7 8 Noroeste 15 Noroeste 0 918.6 1 59
2020-04-03 22:00:00 9.9 9 Noroeste 15 Oeste 0 918.3 0.8 55
2020-04-03 21:00:00 11.9 3 Sur 8 Oeste 0 917.7 0 54
2020-04-03 20:00:00 14.4 4 Sudoeste 16 Este 0 917.6 -0.4 46
2020-04-03 19:00:00 17.1 9 Sudeste 17 Sudeste 0 917.5 -1 35
2020-04-03 18:00:00 15.2 6 Sudeste 18 Este 0 917.7 -1.3 39
2020-04-03 17:00:00 17.1 4 Norte 22 Sur 0 918 -1.5 37
2020-04-03 16:00:00 16.7 6 Este 21 Sudeste 0 918.5 -1.6 41
2020-04-03 15:00:00 16.4 5 Norte 17 Este 0 919 -1.4 48
2020-04-03 14:00:00 15.2 6 Este 23 Este 0 919.5 -1.1 48
2020-04-03 13:00:00 13.9 10 Este 21 Este 0 920.1 -0.2 57
2020-04-03 12:00:00 11.8 8 Este 17 Este 0 920.4 0.2 67
2020-04-03 11:00:00 9 6 Nordeste 13 Sudeste 0 920.6 0.9 73
2020-04-03 10:00:00 7 3 Nordeste 9 Nordeste 0 920.3 0.9 86
2020-04-03 09:00:00 4.2 5 Sudoeste 9 Oeste 0 920.2 0.8 96
2020-04-03 08:00:00 4.3 3 Oeste 8 Sudeste 0 919.7 0.2 95
2020-04-03 07:00:00 4.6 3 Este 11 Este 0 919.4 -0.4 95
2020-04-03 06:00:00 4.8 3 Este 7 Este 0 919.4 -0.5 96
2020-04-03 05:00:00 4.5 0 Calma 5 Norte 0 919.5 -0.6 96
2020-04-03 04:00:00 3.6 3 Noroeste 6 Noroeste 0 919.8 -0.5 95
2020-04-03 03:00:00 3.4 4 Noroeste 9 Oeste 0 919.9 -0.6 95
2020-04-03 02:00:00 3.6 6 Noroeste 13 Noroeste 0 920.1 -0.3 92
2020-04-03 01:00:00 4.6 6 Noroeste 15 Oeste 0 920.3 0.4 92
2020-04-03 00:00:00 5.3 8 Oeste 19 Oeste 0 920.5 1.3 91
2020-04-02 23:00:00 6.2 12 Oeste 27 Oeste 0 920.4 1.4 89
2020-04-02 22:00:00 7.5 17 Oeste 34 Oeste 0 919.9 1.3 84
2020-04-02 21:00:00 8.7 12 Oeste 26 Noroeste 0 919.2 0.8 78
2020-04-02 20:00:00 10.8 14 Oeste 29 Noroeste 0 919 0.7 70
2020-04-02 19:00:00 13.4 14 Noroeste 32 Oeste 0 918.6 0.1 59
2020-04-02 18:00:00 14.2 15 Oeste 29 Noroeste 0 918.4 -0.2 57
2020-04-02 17:00:00 14.3 12 Noroeste 27 Noroeste 0 918.3 -0.6 57
2020-04-02 16:00:00 14.6 11 Noroeste 23 Oeste 0 918.5 -0.7 54
2020-04-02 15:00:00 14.8 6 Oeste 17 Noroeste 0 918.6 -0.5 54
2020-04-02 14:00:00 14.7 6 Norte 19 Sudeste 0 918.9 0 67
2020-04-02 13:00:00 13.4 8 Sudeste 15 Sudeste 0 919.2 0.8 61
2020-04-02 12:00:00 11.6 4 Sudeste 13 Este 0 919.1 1.3 69
2020-04-02 11:00:00 8.8 3 Sudeste 12 Noroeste 0 918.9 1.9 85
2020-04-02 10:00:00 6 5 Oeste 15 Noroeste 0 918.4 1.9 96
2020-04-02 09:00:00 4.3 9 Noroeste 17 Oeste 0 917.8 1.3 96
2020-04-02 08:00:00 3.6 6 Oeste 13 Oeste 0 917 0.7 95
2020-04-02 07:00:00 4.4 7 Oeste 13 Noroeste 0 916.5 -0.2 94
2020-04-02 06:00:00 4.1 10 Noroeste 15 Noroeste 0 916.5 -0.3 95
2020-04-02 05:00:00 4.7 5 Oeste 9 Noroeste 0 916.3 -0.5 94
2020-04-02 04:00:00 4.5 2 Oeste 9 Noroeste 0 916.7 -0.3 95
2020-04-02 03:00:00 3.9 5 Noroeste 9 Noroeste 0 916.8 0.1 95
2020-04-02 02:00:00 4.5 3 Norte 11 Noroeste 0 916.8 0.1 95
2020-04-02 01:00:00 3.6 6 Sudoeste 8 Norte 0 917 0.6 95
2020-04-02 00:00:00 3.7 4 Noroeste 9 Noroeste 0 916.7 0.7 94
2020-04-01 23:00:00 4.3 4 Noroeste 8 Oeste 0.2 916.7 1.1 93
2020-04-01 22:00:00 5.4 2 Sudoeste 7 Oeste 0 916.4 1 90
2020-04-01 21:00:00 6.3 3 Sudoeste 6 Sudoeste 0 916 0.7 90
2020-04-01 20:00:00 6.3 3 Noroeste 9 Sudoeste 0.8 915.6 0.4 93
2020-04-01 19:00:00 6.1 4 Este 13 Nordeste 2.2 915.4 0.4 92
2020-04-01 18:00:00 7 5 Sur 10 Sudeste 3.8 915.3 0.7 87
2020-04-01 17:00:00 7.5 8 Oeste 30 Sur 0.2 915.2 0.6 81
2020-04-01 16:00:00 8.7 10 Sudeste 25 Sur 0 915 0 68
2020-04-01 15:00:00 10.9 9 Sudeste 21 Sur 0 914.6 -0.5 52
2020-04-01 14:00:00 11 11 Este 28 Sudeste 0 914.6 -0.4 51
2020-04-01 13:00:00 11.4 13 Sudeste 26 Sudeste 0 915 0.5 48
2020-04-01 12:00:00 9.4 11 Este 21 Este 0 915.1 1 61
2020-04-01 11:00:00 7.7 14 Este 21 Este 0 915 1.7 77
2020-04-01 10:00:00 6.8 10 Este 18 Este 0 914.5 1.6 81
2020-04-01 09:00:00 4.5 10 Este 20 Este 0 914.1 1.2 93
2020-04-01 08:00:00 3.4 10 Este 27 Nordeste 0 913.3 0.7 89
2020-04-01 07:00:00 3.8 11 Sudeste 23 Sudeste 0 912.9 0.5 88
2020-04-01 06:00:00 4.4 8 Este 17 Nordeste 0 912.9 0.7 94
2020-04-01 05:00:00 5.1 5 Este 10 Este 0 912.6 0.9 93
2020-04-01 04:00:00 5.1 6 Sudeste 15 Este 0 912.4 1 90
2020-04-01 03:00:00 5.3 8 Este 28 Sudeste 0.2 912.2 1.3 88
2020-04-01 02:00:00 5.6 8 Nordeste 16 Este 1 911.7 0.9 89
2020-04-01 01:00:00 5.5 7 Este 13 Este 0 911.4 0.9 82
2020-04-01 00:00:00 5.6 7 Este 21 Este 0 910.9 1 80
2020-03-31 23:00:00 5.7 10 Este 23 Nordeste 0 910.8 1.2 79
2020-03-31 22:00:00 5.6 11 Este 26 Nordeste 0 910.5 1.1 78
2020-03-31 21:00:00 5.8 10 Este 24 Este 0 909.9 0.6 79
2020-03-31 20:00:00 6.3 7 Este 13 Este 0.4 909.6 0.5 82
2020-03-31 19:00:00 6.6 4 Este 15 Este 0.4 909.4 0.1 79
2020-03-31 18:00:00 7.1 7 Sudeste 15 Este 0 909.3 -0.3 64
2020-03-31 17:00:00 7 6 Este 14 Este 0 909.1 -0.4 59
2020-03-31 16:00:00 6.6 8 Sudeste 18 Sudeste 0 909.3 -0.3 56
2020-03-31 15:00:00 5.1 9 Sur 24 Sudeste 0 909.6 -0.2 60
2020-03-31 14:00:00 4.7 12 Este 31 Este 0 909.5 -0.5 57
2020-03-31 13:00:00 3.9 15 Este 33 Este 0 909.6 -0.9 57
2020-03-31 12:00:00 3.2 19 Este 38 Nordeste 0 909.8 -1.1 56
2020-03-31 11:00:00 1.6 14 Este 33 Este 0 910 -0.9 67
2020-03-31 10:00:00 0.7 12 Este 25 Este 0 910.5 -0.5 64
2020-03-31 09:00:00 0 10 Este 26 Nordeste 0 910.9 -0.6 65
2020-03-31 08:00:00 -0.3 9 Este 21 Este 0 910.9 -1.4 66
2020-03-31 07:00:00 -0.7 9 Este 16 Este 0 911 -2.1 67
2020-03-31 06:00:00 -0.8 9 Este 17 Este 0 911.5 -2.4 67
2020-03-31 05:00:00 -1.4 7 Este 15 Este 0 912.3 -2.3 66
2020-03-31 04:00:00 -1.6 6 Sudeste 10 Sudeste 0 913.1 -2.4 64
2020-03-31 03:00:00 -1.6 2 Este 7 Este 0 913.9 -2 62
2020-03-31 02:00:00 -1 5 Este 17 Este 0 914.6 -1.6 59
2020-03-31 01:00:00 -0.3 6 Este 19 Nordeste 0 915.5 -0.7 56
2020-03-31 00:00:00 0.1 10 Este 28 Este 0 915.9 0.1 55
2020-03-30 23:00:00 1.2 16 Este 39 Nordeste 0 916.2 0.8 51
2020-03-30 22:00:00 2.1 17 Este 34 Este 0 916.2 0.9 46
2020-03-30 21:00:00 3 19 Este 40 Este 0 915.8 0.4 41
2020-03-30 20:00:00 4.7 22 Nordeste 43 Este 0 915.4 -0.7 40
2020-03-30 19:00:00 6.1 17 Este 37 Este 0 915.3 -1.5 35
2020-03-30 18:00:00 7.8 19 Este 35 Nordeste 0 915.4 -2.1 33
2020-03-30 17:00:00 8 19 Este 35 Nordeste 0 916.1 -2.7 38
2020-03-30 16:00:00 6.7 12 Este 30 Nordeste 0 916.8 -2.5 42
2020-03-30 15:00:00 6.8 12 Este 26 Sudeste 0 917.5 -2 45
2020-03-30 14:00:00 4.5 17 Este 32 Este 0 918.8 -0.6 51
2020-03-30 13:00:00 3.5 10 Este 32 Este 0 919.3 0 62
2020-03-30 12:00:00 3.2 15 Este 35 Nordeste 0 919.5 0.1 64
2020-03-30 11:00:00 3.1 17 Este 41 Este 0 919.4 0.4 67
2020-03-30 10:00:00 2.9 11 Este 26 Este 0 919.3 0.3 77
2020-03-30 09:00:00 3.1 14 Este 33 Nordeste 0 919.4 0.3 80
2020-03-30 08:00:00 4.3 11 Este 24 Este 0 919 -0.7 70
2020-03-30 07:00:00 4.9 5 Este 15 Este 0 919 -0.7 74
2020-03-30 06:00:00 5 4 Este 12 Oeste 0 919.1 -1 79
2020-03-30 05:00:00 4.6 8 Noroeste 15 Oeste 0 919.7 -0.8 86
2020-03-30 04:00:00 4.3 7 Oeste 14 Noroeste 0 919.7 -1 85
2020-03-30 03:00:00 4.8 8 Noroeste 19 Oeste 0 920.1 -0.8 82
2020-03-30 02:00:00 5.2 8 Noroeste 18 Oeste 0 920.5 -0.4 79
2020-03-30 01:00:00 5.9 9 Noroeste 21 Noroeste 0 920.7 -0.1 76
2020-03-30 00:00:00 6.6 9 Oeste 21 Noroeste 0 920.9 0.6 73
2020-03-29 23:00:00 7.6 8 Noroeste 23 Oeste 0 920.9 1 71
2020-03-29 22:00:00 9 12 Oeste 24 Oeste 0 920.8 1 65
2020-03-29 21:00:00 10.2 9 Oeste 21 Oeste 0 920.3 0.5 62
2020-03-29 20:00:00 12.2 8 Oeste 33 Noroeste 0 919.9 -0.2 51
2020-03-29 19:00:00 14.6 14 Noroeste 31 Oeste 0 919.8 -1 48
2020-03-29 18:00:00 16.6 13 Oeste 31 Oeste 0 919.8 -1.4 36
2020-03-29 17:00:00 16 13 Noroeste 30 Noroeste 0 920.1 -1.6 37
2020-03-29 16:00:00 17.1 15 Oeste 30 Noroeste 0 920.8 -1.5 31
2020-03-29 15:00:00 16.5 10 Noroeste 24 Noroeste 0 921.2 -1.5 38
2020-03-29 14:00:00 15.4 9 Este 17 Sudeste 0 921.7 -1.1 40
2020-03-29 13:00:00 13.9 7 Nordeste 14 Este 0 922.3 -0.3 46
2020-03-29 12:00:00 11.7 5 Nordeste 13 Nordeste 0 922.7 0.2 49
2020-03-29 11:00:00 9.4 5 Este 10 Nordeste 0 922.8 0.6 59
2020-03-29 10:00:00 6.1 3 Noroeste 12 Noroeste 0 922.6 0.6 70
2020-03-29 09:00:00 1.6 7 Noroeste 11 Oeste 0 922.5 0.4 80
2020-03-29 08:00:00 1.1 6 Oeste 13 Noroeste 0 922.2 0 80
2020-03-29 07:00:00 1.2 8 Noroeste 13 Noroeste 0 922 -0.6 80
2020-03-29 06:00:00 1.8 9 Noroeste 12 Noroeste 0 922.1 -0.5 79
2020-03-29 05:00:00 2.4 7 Noroeste 12 Noroeste 0 922.2 -0.5 76
2020-03-29 03:00:00 3.6 8 Noroeste 21 Oeste 0 922.6 0.3 72
2020-03-29 01:00:00 4.5 12 Noroeste 18 Oeste 0 922.7 0.5 69
2020-03-29 00:00:00 6 10 Oeste 27 Oeste 0 922.7 0.7 63
2020-03-28 23:00:00 5.9 10 Noroeste 19 Oeste 0 922.3 1.1 65
2020-03-28 22:00:00 7.5 10 Oeste 17 Oeste 0 922.2 1.4 59
2020-03-28 21:00:00 8.9 9 Oeste 15 Oeste 0 922 1.8 54
2020-03-28 20:00:00 10.2 8 Sudoeste 19 Noroeste 0 921.2 1.2 48
2020-03-28 19:00:00 12.7 9 Noroeste 22 Oeste 0 920.8 0.6 38
2020-03-28 18:00:00 14.5 6 Noroeste 22 Oeste 0 920.2 -0.5 32
2020-03-28 17:00:00 15.3 6 Nordeste 21 Nordeste 0 920 -1 28
2020-03-28 16:00:00 15.2 8 Nordeste 22 Noroeste 0 920.2 -1.3 27
2020-03-28 15:00:00 14.3 6 Este 17 Sudeste 0 920.7 -1.1 28
2020-03-28 14:00:00 13.6 9 Nordeste 16 Nordeste 0 921 -0.9 33
2020-03-28 13:00:00 12.3 8 Este 14 Este 0 921.5 0 32
2020-03-28 12:00:00 10.6 8 Este 13 Sudeste 0 921.8 0.6 39
2020-03-28 11:00:00 8.9 6 Este 16 Este 0 921.9 1.3 46
2020-03-28 10:00:00 7.1 9 Este 19 Este 0 921.5 1.3 52
2020-03-28 09:00:00 3.5 2 Oeste 10 Noroeste 0 921.2 1.4 64
2020-03-28 08:00:00 1.5 6 Noroeste 11 Noroeste 0 920.6 1.2 70
2020-03-28 07:00:00 0.1 9 Noroeste 12 Noroeste 0 920.2 1.2 72
2020-03-28 06:00:00 0.4 6 Noroeste 11 Noroeste 0 919.8 0.7 70
2020-03-28 05:00:00 0.9 7 Noroeste 10 Noroeste 0 919.4 0.3 67
2020-03-28 04:00:00 1.4 5 Noroeste 8 Noroeste 0 919 0.2 65
2020-03-28 03:00:00 3.7 0 Calma 6 Sudoeste 0 919.1 0.6 54
2020-03-28 02:00:00 3.7 2 Oeste 7 Oeste 0 919.1 0.9 54
2020-03-28 01:00:00 4.2 3 Noroeste 5 Noroeste 0 918.8 1.3 53
2020-03-28 00:00:00 5.1 0 Calma 13 Este 0 918.5 1.6 48
2020-03-27 23:00:00 6 4 Este 15 Sudeste 0 918.2 2.4 45
2020-03-27 22:00:00 7.5 6 Sudeste 22 Sur 0 917.5 2.3 39
2020-03-27 21:00:00 7.6 9 Sudeste 22 Sudeste 0 916.9 2.3 38
2020-03-27 20:00:00 8.6 8 Sur 18 Sur 0 915.8 1.5 35
2020-03-27 19:00:00 10.2 10 Este 19 Nordeste 0 915.2 0.8 28
2020-03-27 18:00:00 11.8 11 Este 26 Nordeste 0 914.6 -0.1 27
2020-03-27 17:00:00 12.6 12 Nordeste 25 Nordeste 0 914.3 -0.9 25
2020-03-27 16:00:00 12.7 11 Nordeste 26 Nordeste 0 914.4 -1.2 30
2020-03-27 15:00:00 12.4 7 Este 22 Sudeste 0 914.7 -1.3 31
2020-03-27 14:00:00 11.1 6 Este 23 Este 0 915.2 -0.8 32
2020-03-27 13:00:00 10.3 11 Este 29 Este 0 915.6 -0.2 38
2020-03-27 12:00:00 8.9 12 Este 30 Nordeste 0 916 0.9 43
2020-03-27 11:00:00 6.9 17 Este 30 Este 0 916 1.2 48
2020-03-27 10:00:00 4.7 14 Este 29 Nordeste 0 915.8 1.4 63
2020-03-27 09:00:00 2.8 9 Este 19 Este 0 915.1 1.1 74
2020-03-27 08:00:00 0.3 5 Este 7 Este 0 914.8 0.7 92
2020-03-27 07:00:00 -1.3 3 Nordeste 11 Nordeste 0 914.4 0.3 93
2020-03-27 06:00:00 -1 3 Nordeste 8 Sudoeste 0 914 -0.2 89
2020-03-27 05:00:00 -1.1 6 Noroeste 10 Noroeste 0 914.1 -0.4 90
2020-03-27 04:00:00 -1 6 Noroeste 13 Noroeste 0 914.1 -0.2 90
2020-03-27 03:00:00 -0.4 6 Noroeste 10 Noroeste 0 914.2 -0.4 88
2020-03-27 02:00:00 0.7 7 Oeste 18 Noroeste 0 914.5 -0.2 88
2020-03-27 01:00:00 1.5 10 Noroeste 18 Oeste 0 914.3 -0.4 87
2020-03-27 00:00:00 2.3 10 Noroeste 21 Noroeste 0 914.6 -0.2 87
2020-03-26 23:00:00 3.7 11 Oeste 29 Noroeste 0 914.7 0.3 83
2020-03-26 22:00:00 4.8 15 Oeste 33 Oeste 0 914.7 0.3 80
2020-03-26 21:00:00 6.1 15 Oeste 33 Noroeste 0 914.8 0.5 75
2020-03-26 20:00:00 7.9 17 Oeste 30 Oeste 0 914.4 0 67
2020-03-26 19:00:00 10.1 15 Oeste 35 Noroeste 0 914.4 -0.3 57
2020-03-26 18:00:00 12.1 14 Noroeste 30 Oeste 0 914.3 -0.8 50
2020-03-26 17:00:00 14.1 13 Noroeste 36 Noroeste 0 914.4 -1.3 42
2020-03-26 16:00:00 14.1 17 Oeste 36 Oeste 0 914.7 -1.4 37
2020-03-26 15:00:00 13.8 17 Oeste 35 Oeste 0 915.1 -1.3 32
2020-03-26 14:00:00 13.7 16 Oeste 32 Oeste 0 915.7 -1 28
2020-03-26 13:00:00 13.2 17 Oeste 34 Oeste 0 916.1 -1 32
2020-03-26 12:00:00 13 14 Oeste 27 Oeste 0 916.4 -0.9 33
2020-03-26 11:00:00 12.4 11 Oeste 22 Oeste 0 916.7 -0.7 34
2020-03-26 10:00:00 9.5 10 Noroeste 20 Oeste 0 917.1 0 46
2020-03-26 09:00:00 6.6 12 Oeste 21 Oeste 0 917.3 0.3 52
2020-03-26 08:00:00 2.8 13 Oeste 22 Oeste 0 917.4 0.4 62
2020-03-26 07:00:00 2.2 13 Noroeste 21 Noroeste 0 917.1 -0.4 59
2020-03-26 06:00:00 1.6 8 Oeste 15 Oeste 0 917 -0.8 63
2020-03-26 05:00:00 2.5 9 Noroeste 23 Oeste 0 917 -1.3 63
2020-03-26 04:00:00 3.6 14 Oeste 30 Oeste 0 917.5 -1.2 66
2020-03-26 03:00:00 4.2 16 Oeste 28 Oeste 0 917.8 -1 63
2020-03-26 02:00:00 4.9 14 Oeste 26 Oeste 0 918.3 -0.9 66
2020-03-26 01:00:00 5.9 12 Oeste 21 Oeste 0 918.7 -0.7 65
2020-03-26 00:00:00 6.9 8 Oeste 21 Oeste 0 918.8 -0.3 59
2020-03-25 23:00:00 8.2 10 Oeste 19 Sudoeste 0 919.2 0.3 52
2020-03-25 22:00:00 9.4 9 Oeste 22 Oeste 0 919.4 1.1 58
2020-03-25 21:00:00 10.7 12 Oeste 25 Noroeste 0 919.1 1.1 57
2020-03-25 20:00:00 12.3 10 Noroeste 28 Noroeste 0 918.9 0.7 56
2020-03-25 19:00:00 13.8 11 Noroeste 35 Noroeste 0 918.3 0 48
2020-03-25 18:00:00 15.2 11 Noroeste 31 Noroeste 0 918 -0.8 43
2020-03-25 17:00:00 17.2 13 Norte 38 Noroeste 0 918.2 -1.2 35
2020-03-25 16:00:00 17.8 13 Noroeste 31 Noroeste 0 918.3 -1.6 41
2020-03-25 15:00:00 16.4 13 Norte 31 Oeste 0 918.8 -1.2 47
2020-03-25 14:00:00 17 14 Noroeste 34 Noroeste 0 919.4 -0.7 44
2020-03-25 13:00:00 17.5 17 Noroeste 37 Noroeste 0 919.9 -0.2 43
2020-03-25 12:00:00 16.7 16 Noroeste 33 Noroeste 0 920 -0.1 43
2020-03-25 11:00:00 16.5 7 Noroeste 17 Oeste 0 920.1 0 46
2020-03-25 10:00:00 13.6 3 Oeste 10 Oeste 0 920.1 0.3 61
2020-03-25 09:00:00 9.9 4 Noroeste 13 Noroeste 0 920.1 0.5 71
2020-03-25 08:00:00 5.7 8 Noroeste 14 Noroeste 0 920.1 0.4 85
2020-03-25 07:00:00 4.5 10 Noroeste 15 Noroeste 0 919.8 0.1 85
2020-03-25 06:00:00 4.7 10 Noroeste 15 Noroeste 0 919.6 -0.3 85
2020-03-25 05:00:00 4.8 7 Noroeste 12 Oeste 0 919.7 -0.5 84
2020-03-25 04:00:00 5.3 7 Noroeste 14 Oeste 0 919.7 -0.5 82
2020-03-25 03:00:00 6.3 10 Noroeste 15 Noroeste 0 919.9 -0.2 80
2020-03-25 02:00:00 6.6 9 Noroeste 13 Noroeste 0 920.2 0.1 79
2020-03-25 01:00:00 7.3 9 Oeste 24 Oeste 0 920.2 0.5 76
2020-03-25 00:00:00 7.2 9 Noroeste 14 Noroeste 0 920.1 0.6 76
2020-03-24 23:00:00 8.5 5 Oeste 19 Oeste 0 920.1 0.9 69
2020-03-24 22:00:00 9.4 9 Oeste 22 Oeste 0 919.7 0.8 66
2020-03-24 21:00:00 10.4 5 Oeste 10 Sudoeste 0 919.5 0.8 60
2020-03-24 20:00:00 12.3 6 Sudoeste 10 Sudoeste 0 919.2 0.6 54
2020-03-24 19:00:00 14.1 5 Nordeste 13 Nordeste 0 918.9 -0.1 46
2020-03-24 18:00:00 15.5 6 Nordeste 18 Sudeste 0 918.7 -0.6 43
2020-03-24 17:00:00 16.8 4 Sudeste 21 Sudeste 0 918.6 -1.3 40
2020-03-24 16:00:00 16.3 9 Nordeste 23 Este 0 919 -1.2 46
2020-03-24 15:00:00 15.9 13 Nordeste 30 Este 0 919.3 -1.2 50
2020-03-24 14:00:00 15.5 12 Este 27 Nordeste 0 919.9 -0.8 48
2020-03-24 13:00:00 14.9 13 Este 29 Nordeste 0 920.2 -0.5 56
2020-03-24 12:00:00 13.9 14 Este 31 Este 0 920.5 -0.1 56
2020-03-24 11:00:00 11.6 16 Este 33 Este 0 920.7 0.2 66
2020-03-24 10:00:00 10.5 15 Este 32 Este 0 920.7 0.6 71
2020-03-24 09:00:00 8.9 11 Este 23 Este 0 920.6 0.9 81
2020-03-24 08:00:00 6.4 6 Este 18 Sudeste 0 920.5 1 90
2020-03-24 07:00:00 5.2 3 Este 12 Nordeste 0 920.1 0.5 93
2020-03-24 06:00:00 5.5 4 Este 13 Nordeste 0 919.7 0 94
2020-03-24 05:00:00 5.2 6 Este 13 Nordeste 0 919.5 -0.2 96
2020-03-24 04:00:00 5.7 6 Este 12 Nordeste 0 919.6 -0.1 97
2020-03-24 03:00:00 5.8 4 Este 12 Nordeste 0 919.7 0 96
2020-03-24 02:00:00 6.2 3 Este 8 Este 0 919.7 0.1 97
2020-03-24 01:00:00 5.9 4 Este 7 Este 0 919.7 0.3 95
2020-03-24 00:00:00 5.9 5 Oeste 14 Oeste 0 919.7 0.7 94
2020-03-23 23:00:00 6.7 7 Oeste 20 Noroeste 0 919.6 1.3 94
2020-03-23 22:00:00 7.4 9 Noroeste 22 Noroeste 0 919.4 1.4 92
2020-03-23 21:00:00 8.4 12 Oeste 23 Noroeste 0 919 1.2 88
2020-03-23 20:00:00 10.3 12 Oeste 19 Oeste 0 918.3 0.4 79
2020-03-23 19:00:00 13.3 4 Noroeste 17 Este 0 918 0 62
2020-03-23 18:00:00 14.4 8 Este 22 Este 0 917.8 -0.7 45
2020-03-23 17:00:00 15.3 14 Nordeste 26 Este 0 917.9 -1.3 42
2020-03-23 16:00:00 15.4 11 Este 25 Este 0 918 -1.8 43
2020-03-23 15:00:00 15.2 9 Nordeste 21 Nordeste 0 918.5 -1.8 44
2020-03-23 14:00:00 14.5 9 Este 23 Nordeste 0 919.2 -1.3 49
2020-03-23 13:00:00 13.4 11 Nordeste 21 Nordeste 0 919.8 -0.7 56
2020-03-23 12:00:00 12.4 7 Este 21 Sudeste 0 920.3 0.3 61
2020-03-23 11:00:00 10.8 10 Este 18 Nordeste 0 920.5 0.7 68
2020-03-23 10:00:00 8.9 10 Este 17 Este 0 920.5 1.2 77
2020-03-23 09:00:00 5.9 6 Noroeste 10 Noroeste 0 920 1.2 95
2020-03-23 08:00:00 3.8 7 Noroeste 10 Noroeste 0 919.8 1.1 96
2020-03-23 07:00:00 4.1 6 Noroeste 10 Noroeste 0 919.3 0.8 95
2020-03-23 06:00:00 4.7 4 Noroeste 10 Noroeste 0 918.8 0.2 95
2020-03-23 05:00:00 5.2 4 Noroeste 7 Noroeste 0 918.7 0.1 94
2020-03-23 04:00:00 5.2 5 Noroeste 9 Noroeste 0 918.5 -0.2 95
2020-03-23 03:00:00 4.3 5 Noroeste 11 Noroeste 0 918.6 -0.2 95
2020-03-23 02:00:00 4.5 5 Noroeste 11 Noroeste 0 918.6 0 93
2020-03-23 01:00:00 5.4 5 Noroeste 9 Oeste 0 918.7 0.7 92
2020-03-23 00:00:00 6.8 3 Oeste 7 Noroeste 0 918.8 1 92
2020-03-22 23:00:00 7.6 2 Oeste 15 Oeste 0 918.6 1.6 90
2020-03-22 22:00:00 8.3 8 Noroeste 24 Sudoeste 0 918 1.6 74
2020-03-22 21:00:00 9.8 8 Sudeste 25 Sur 0 917.8 1.8 69
2020-03-22 20:00:00 10.3 10 Oeste 25 Oeste 0 917 1.1 86
2020-03-22 19:00:00 11.4 13 Oeste 25 Oeste 0 916.4 0.4 81
2020-03-22 18:00:00 12.2 11 Oeste 30 Oeste 0 916 0 77
2020-03-22 17:00:00 11.9 13 Oeste 31 Oeste 0 915.9 -0.2 77
2020-03-22 16:00:00 13.1 13 Oeste 32 Oeste 0 916 -0.6 71
2020-03-22 15:00:00 14.5 13 Noroeste 31 Oeste 0 916 -1 69
2020-03-22 14:00:00 15.9 9 Noroeste 16 Noroeste 0 916.1 -0.9 62
2020-03-22 13:00:00 14.7 6 Este 13 Este 0 916.6 -0.2 63
2020-03-22 12:00:00 13.5 5 Nordeste 15 Sudeste 0 917 0.8 74
2020-03-22 11:00:00 10.8 6 Este 15 Sudeste 0 917 1.1 81
2020-03-22 10:00:00 10.9 7 Este 13 Sudeste 0 916.8 1.2 84
2020-03-22 09:00:00 8.7 4 Noroeste 8 Oeste 0 916.2 1 94
2020-03-22 08:00:00 6.2 5 Noroeste 9 Noroeste 0 915.9 1 95
2020-03-22 07:00:00 6.2 3 Noroeste 5 Oeste 0 915.6 0.7 94
2020-03-22 06:00:00 7.2 2 Oeste 6 Oeste 0 915.2 0.3 91
2020-03-22 05:00:00 8 3 Noroeste 8 Noroeste 0 914.9 -0.2 92
2020-03-22 04:00:00 8.1 4 Noroeste 10 Noroeste 0 914.9 -0.3 92
2020-03-22 03:00:00 8.2 4 Noroeste 10 Oeste 0 914.9 -0.2 93
2020-03-22 02:00:00 8.1 5 Noroeste 13 Oeste 0 915.1 0 91
2020-03-22 01:00:00 8.3 7 Oeste 14 Oeste 0 915.2 0.3 90
2020-03-22 00:00:00 8.1 9 Oeste 19 Oeste 0 915.1 0.6 89
2020-03-21 23:00:00 8.5 8 Oeste 21 Oeste 0 915.1 1 88
2020-03-21 22:00:00 9.1 8 Oeste 17 Oeste 0 914.9 1.6 87
2020-03-21 21:00:00 9.6 7 Oeste 13 Oeste 0 914.5 1.3 85
2020-03-21 20:00:00 10.1 7 Noroeste 12 Oeste 0 914.1 0.8 77
2020-03-21 19:00:00 10.9 3 Nordeste 12 Sudeste 0 913.3 -0.2 71
2020-03-21 18:00:00 11.9 6 Sudeste 17 Sudeste 0 913.2 -0.6 69
2020-03-21 17:00:00 11.8 8 Este 21 Este 0 913.3 -1 68
2020-03-21 16:00:00 11.8 8 Sudeste 21 Sudeste 0 913.5 -0.9 70
2020-03-21 15:00:00 10.9 11 Sudeste 30 Sudeste 0 913.8 -0.6 72
2020-03-21 14:00:00 10.4 15 Sudeste 29 Sur 0 914.3 0 72
2020-03-21 13:00:00 10.4 6 Sudeste 19 Este 0 914.4 0.3 78
2020-03-21 12:00:00 10.4 12 Este 18 Nordeste 0 914.4 0.5 79
2020-03-21 11:00:00 9.5 7 Nordeste 13 Nordeste 0 914.3 0.7 85
2020-03-21 10:00:00 9.2 7 Sudeste 20 Este 0 914.1 0.6 81
2020-03-21 09:00:00 8.9 7 Sudeste 22 Sudeste 0 913.9 0.4 85
2020-03-21 08:00:00 8.5 12 Sudeste 23 Sudeste 0 913.6 0 86
2020-03-21 07:00:00 8.1 4 Este 17 Nordeste 0.2 913.5 -0.2 92
2020-03-21 06:00:00 8 4 Sudeste 19 Este 0 913.5 -0.8 92
2020-03-21 05:00:00 8 5 Sudeste 13 Este 0.2 913.6 -1.2 94
2020-03-21 04:00:00 8 6 Este 12 Este 0 913.7 -1.5 93
2020-03-21 03:00:00 8.4 5 Este 10 Este 0 914.3 -1.3 94
2020-03-21 02:00:00 8.6 3 Este 8 Este 0 914.8 -1 92
2020-03-21 01:00:00 9 2 Norte 10 Sudeste 0 915.2 -0.9 92
2020-03-21 00:00:00 8.9 3 Sudeste 8 Sudoeste 0 915.6 -0.6 89
2020-03-20 23:00:00 9.1 2 Sur 5 Nordeste 0 915.8 -0.2 85
2020-03-20 22:00:00 9.2 3 Este 11 Sudeste 0 916.1 0.1 82
2020-03-20 21:00:00 9.5 7 Sudeste 18 Sudeste 0 916.2 0.5 80
2020-03-20 20:00:00 9.9 9 Sudeste 16 Sudeste 0 916 0 79
2020-03-20 19:00:00 10.1 9 Sudeste 19 Sudeste 0 916 -0.4 80
2020-03-20 18:00:00 10.5 13 Este 26 Sudeste 0 915.7 -1.1 82
2020-03-20 17:00:00 11.2 12 Sudeste 28 Este 0 916 -1 81
2020-03-20 16:00:00 10.2 12 Este 28 Sudeste 0.2 916.4 -0.7 89
2020-03-20 15:00:00 10.2 11 Sudeste 28 Sudeste 0.2 916.8 -0.7 89
2020-03-20 14:00:00 10.1 8 Este 19 Este 0 917 -0.6 89
2020-03-20 13:00:00 10.5 9 Nordeste 18 Este 0 917.1 -0.4 90
2020-03-20 12:00:00 9.8 10 Este 18 Este 0 917.5 0 90
2020-03-20 11:00:00 9 7 Este 14 Este 0 917.6 0.3 95
2020-03-20 10:00:00 8.3 8 Este 15 Este 0 917.5 0.3 95
2020-03-20 09:00:00 8.2 6 Este 15 Este 0.2 917.5 0.4 94
2020-03-20 08:00:00 8.3 4 Nordeste 10 Norte 0.2 917.3 0.3 94
2020-03-20 07:00:00 8.8 4 Noroeste 10 Nordeste 1.4 917.2 0 93
2020-03-20 06:00:00 8.8 3 Nordeste 10 Nordeste 0.2 917.1 -0.5 93
2020-03-20 05:00:00 8.8 3 Sudeste 9 Sudeste 0 917 -0.9 90
2020-03-20 04:00:00 8.9 5 Norte 11 Noroeste 0 917.2 -1 89
2020-03-20 03:00:00 9.1 3 Oeste 5 Sudoeste 0 917.6 -1 87
2020-03-20 02:00:00 9 2 Norte 5 Noroeste 0 917.9 -1.1 87
2020-03-20 01:00:00 8.7 5 Noroeste 9 Noroeste 0 918.2 -1.1 86
2020-03-20 00:00:00 9.3 3 Nordeste 12 Noroeste 0 918.6 -0.5 83
2020-03-19 23:00:00 9.7 6 Oeste 14 Noroeste 0 919 0.2 83
2020-03-19 22:00:00 10 9 Noroeste 21 Oeste 0 919.3 0.4 87
2020-03-19 21:00:00 10.5 7 Noroeste 17 Noroeste 0 919.1 0.1 86
2020-03-19 20:00:00 11.4 10 Oeste 15 Noroeste 2 918.8 -1 85
2020-03-19 19:00:00 12.2 3 Sudoeste 11 Oeste 0 918.9 -0.7 78
2020-03-19 18:00:00 12.6 5 Noroeste 14 Norte 1.2 919 -1.1 80
2020-03-19 17:00:00 14.6 5 Nordeste 28 Este 0 919.8 -1.3 68
2020-03-19 16:00:00 18.1 5 Oeste 15 Noroeste 0 919.6 -2.3 45
2020-03-19 15:00:00 19.1 5 Sudoeste 15 Este 0 920.1 -2.6 44
2020-03-19 14:00:00 18.8 9 Este 17 Sudeste 0 921.1 -2.1 51
2020-03-19 13:00:00 17.8 8 Este 15 Este 0 921.9 -1.4 52
2020-03-19 12:00:00 16.2 5 Este 14 Este 0 922.7 -0.5 55
2020-03-19 11:00:00 13.6 5 Este 11 Nordeste 0 923.2 -0.1 64
2020-03-19 10:00:00 11.4 5 Este 12 Este 0 923.3 0 71
2020-03-19 09:00:00 8.8 2 Sur 7 Sudoeste 0 923.2 -0.4 79
2020-03-19 08:00:00 7.3 2 Nordeste 14 Nordeste 0 923.3 -0.4 81
2020-03-19 07:00:00 7.7 5 Nordeste 9 Este 0 923.3 -0.6 84
2020-03-19 06:00:00 7.2 6 Oeste 11 Oeste 0 923.6 -0.9 81
2020-03-19 05:00:00 7.4 7 Noroeste 12 Noroeste 0 923.7 -1.2 81
2020-03-19 04:00:00 8.3 3 Oeste 11 Noroeste 0 923.9 -1.4 77
2020-03-19 03:00:00 8.5 6 Noroeste 12 Oeste 0 924.5 -1.1 76
2020-03-19 02:00:00 8.6 8 Noroeste 15 Noroeste 0 924.9 -0.9 77
2020-03-19 01:00:00 9.2 6 Oeste 15 Oeste 0 925.3 -0.5 74
2020-03-19 00:00:00 9.8 10 Noroeste 16 Noroeste 0 925.6 0 73
2020-03-18 23:00:00 10.6 6 Oeste 17 Oeste 0 925.8 0.2 70
2020-03-18 22:00:00 10.9 6 Noroeste 14 Noroeste 0 925.8 0.4 70
2020-03-18 21:00:00 12.2 7 Oeste 14 Oeste 0 925.6 0.3 69
2020-03-18 20:00:00 14.4 5 Oeste 10 Oeste 0 925.6 0.3 62
2020-03-18 19:00:00 16.3 5 Oeste 11 Oeste 0 925.4 -0.3 58
2020-03-18 18:00:00 18.2 2 Norte 11 Este 0 925.3 -1 43
2020-03-18 17:00:00 18.8 4 Nordeste 14 Este 0 925.3 -1.8 47
2020-03-18 16:00:00 18.6 6 Este 19 Este 0 925.7 -2.2 45
2020-03-18 15:00:00 17.8 7 Este 17 Este 0 926.3 -2.2 46
2020-03-18 14:00:00 16.8 10 Este 20 Nordeste 0 927.1 -1.8 54
2020-03-18 13:00:00 15.6 9 Nordeste 19 Nordeste 0 927.9 -1.3 58
2020-03-18 12:00:00 14.1 10 Nordeste 19 Nordeste 0 928.5 -0.6 66
2020-03-18 11:00:00 12.7 8 Este 17 Nordeste 0 928.9 -0.3 71
2020-03-18 10:00:00 11.1 9 Este 18 Nordeste 0 929.2 0 78
2020-03-18 09:00:00 9 8 Nordeste 19 Nordeste 0 929.1 0 85
2020-03-18 08:00:00 6.2 5 Nordeste 13 Nordeste 0 929.2 0.2 92
2020-03-18 07:00:00 6.6 4 Norte 18 Nordeste 0 929.2 0.1 88
2020-03-18 06:00:00 7.1 3 Sudoeste 21 Este 0 929.1 -0.1 87
2020-03-18 05:00:00 7.2 3 Nordeste 14 Este 0 929 -0.4 87
2020-03-18 04:00:00 7.5 6 Nordeste 15 Nordeste 0 929.1 -0.6 86
2020-03-18 03:00:00 7.2 4 Este 14 Este 0 929.2 -1 85
2020-03-18 02:00:00 7.6 6 Nordeste 10 Este 0 929.4 -0.7 83
2020-03-18 01:00:00 8.2 6 Este 12 Sudeste 0 929.7 -0.1 79
2020-03-18 00:00:00 8.3 2 Sudeste 9 Este 0 930.2 1 77
2020-03-17 23:00:00 9.1 0 Calma 10 Este 0 930.1 1.6 73
2020-03-17 22:00:00 9.6 2 Este 7 Sudoeste 0 929.8 1.8 70
2020-03-17 21:00:00 10.4 4 Este 18 Este 0 929.2 1.7 67
2020-03-17 20:00:00 11.8 9 Este 22 Nordeste 0 928.5 1.2 64
2020-03-17 19:00:00 13.4 12 Este 21 Nordeste 0 928 0.9 59
2020-03-17 18:00:00 14.4 8 Este 25 Este 0 927.5 0.2 57
2020-03-17 17:00:00 15.2 11 Este 28 Este 0 927.3 -0.1 51
2020-03-17 16:00:00 15.7 17 Este 32 Este 0 927.1 -0.6 53
2020-03-17 15:00:00 14.6 15 Este 34 Este 0 927.3 -0.8 54
2020-03-17 14:00:00 15.3 16 Este 37 Este 0 927.4 -0.7 51
2020-03-17 13:00:00 13.9 17 Este 27 Este 0 927.7 -0.2 54
2020-03-17 12:00:00 12.4 11 Este 22 Sudeste 0 928.1 0.4 56
2020-03-17 11:00:00 10.7 9 Este 15 Sudeste 0 928.1 0.9 60
2020-03-17 10:00:00 8.5 6 Este 11 Nordeste 0 927.9 1.4 65
2020-03-17 09:00:00 4.2 3 Este 10 Noroeste 0 927.7 1.9 79
2020-03-17 08:00:00 1.7 4 Oeste 15 Oeste 0 927.2 1.7 84
2020-03-17 07:00:00 1.4 10 Oeste 18 Oeste 0 926.5 1 84
2020-03-17 06:00:00 1 6 Noroeste 12 Noroeste 0 925.8 0.1 80
2020-03-17 05:00:00 1.8 4 Noroeste 8 Noroeste 0 925.5 0.4 77
2020-03-17 04:00:00 1.1 4 Oeste 13 Noroeste 0 925.5 0.1 83
2020-03-17 03:00:00 1.4 9 Noroeste 14 Noroeste 0 925.7 0.1 85
2020-03-17 02:00:00 2.1 9 Noroeste 14 Noroeste 0 925.1 -0.3 85
2020-03-17 01:00:00 2.1 5 Sudoeste 16 Noroeste 0 925.4 0.2 89
2020-03-17 00:00:00 1.5 7 Oeste 22 Oeste 0 925.6 1.1 89
2020-03-16 23:00:00 1.8 12 Oeste 22 Oeste 0 925.4 1.2 87
2020-03-16 22:00:00 2.3 12 Oeste 21 Noroeste 0 925.2 1.8 87
2020-03-16 21:00:00 3.1 12 Noroeste 25 Oeste 0 924.5 1.3 83
2020-03-16 20:00:00 3.9 9 Oeste 21 Sudoeste 0 924.2 1.6 79
2020-03-16 19:00:00 5.4 9 Oeste 30 Oeste 0 923.4 0.9 70
2020-03-16 18:00:00 6.8 11 Norte 32 Noroeste 0 923.2 0.6 63
2020-03-16 17:00:00 7.7 12 Noroeste 36 Noroeste 0 922.6 -0.3 64
2020-03-16 16:00:00 8.5 11 Norte 37 Noroeste 0 922.5 -0.5 68
2020-03-16 15:00:00 8 16 Norte 35 Norte 0 922.6 -0.4 73
2020-03-16 14:00:00 7.9 15 Noroeste 40 Noroeste 0 922.9 0.2 73
2020-03-16 13:00:00 7.5 11 Noroeste 30 Noroeste 0 923 1 74
2020-03-16 12:00:00 7.1 13 Noroeste 33 Noroeste 0 923 1.2 79
2020-03-16 11:00:00 6.8 12 Noroeste 27 Noroeste 0 922.7 1.5 78
2020-03-16 10:00:00 4.6 11 Oeste 24 Noroeste 0 922 1.6 86
2020-03-16 09:00:00 3.2 10 Oeste 21 Oeste 0.2 921.8 1.9 94
2020-03-16 08:00:00 1.5 8 Oeste 25 Noroeste 0 921.2 1.4 94
2020-03-16 07:00:00 1.4 12 Oeste 41 Noroeste 0 920.4 1 93
2020-03-16 06:00:00 1.3 11 Oeste 39 Noroeste 0 919.9 0.6 94
2020-03-16 05:00:00 1.3 10 Noroeste 32 Oeste 0 919.8 0.8 92
2020-03-16 04:00:00 1.5 12 Oeste 28 Noroeste 0.2 919.4 0.5 94
2020-03-16 03:00:00 1.5 8 Noroeste 27 Noroeste 0.2 919.3 0.3 94
2020-03-16 02:00:00 1.6 6 Noroeste 25 Noroeste 0 919 0.2 94
2020-03-16 01:00:00 1.5 7 Noroeste 27 Noroeste 0.2 918.9 0.5 94
2020-03-16 00:00:00 1.5 10 Oeste 23 Noroeste 0.2 919 0.8 94
2020-03-15 23:00:00 1.6 8 Noroeste 24 Oeste 0.2 918.8 0.8 94
2020-03-15 22:00:00 1.5 9 Oeste 24 Oeste 0 918.4 0.5 94
2020-03-15 21:00:00 1.5 12 Oeste 25 Oeste 0 918.2 0.7 94
2020-03-15 20:00:00 1.3 8 Oeste 18 Oeste 0.4 918 1.1 94
2020-03-15 19:00:00 1.1 10 Oeste 31 Oeste 1.2 917.9 1.4 92
2020-03-15 18:00:00 1.6 16 Oeste 42 Noroeste 1.8 917.5 1.6 91
2020-03-15 17:00:00 3.4 22 Oeste 42 Oeste 1.8 916.9 0.7 89
2020-03-15 16:00:00 5.6 18 Oeste 45 Oeste 0.8 916.5 -0.8 86
2020-03-15 15:00:00 9.2 19 Oeste 40 Oeste 0 915.9 -2.2 76
2020-03-15 14:00:00 14.7 18 Oeste 40 Sudoeste 0 916.2 -2.2 46
2020-03-15 13:00:00 13.9 15 Oeste 31 Oeste 0 917.3 -1.1 47
2020-03-15 12:00:00 10.8 14 Noroeste 33 Oeste 0 918.1 -0.2 57
2020-03-15 11:00:00 8.9 13 Oeste 33 Oeste 0 918.4 -0.1 71
2020-03-15 10:00:00 9.5 9 Noroeste 19 Oeste 0 918.4 0.1 67
2020-03-15 09:00:00 7.8 5 Sudeste 21 Oeste 0 918.3 0 56
2020-03-15 08:00:00 2.9 9 Noroeste 17 Noroeste 0 918.5 -0.1 60
2020-03-15 07:00:00 2.8 7 Oeste 12 Noroeste 0 918.3 -1 61
2020-03-15 06:00:00 2.2 9 Noroeste 14 Noroeste 0 918.3 -1.8 60
2020-03-15 05:00:00 2.3 9 Noroeste 13 Noroeste 0 918.6 -2 57
2020-03-15 04:00:00 2.6 8 Noroeste 18 Noroeste 0 919.3 -1.8 54
2020-03-15 03:00:00 2.6 8 Noroeste 17 Noroeste 0 920.1 -1.7 51
2020-03-15 02:00:00 3.2 9 Noroeste 17 Noroeste 0 920.6 -1.4 51
2020-03-15 01:00:00 4.3 11 Noroeste 19 Noroeste 0 921.1 -1.2 53
2020-03-15 00:00:00 4.7 10 Noroeste 16 Noroeste 0 921.8 -0.8 55
2020-03-14 23:00:00 5.7 10 Noroeste 16 Oeste 0 922 -0.4 55
2020-03-14 22:00:00 6.8 7 Noroeste 14 Noroeste 0 922.3 0 56
2020-03-14 21:00:00 7.9 6 Noroeste 12 Noroeste 0 922.6 0.3 55
2020-03-14 20:00:00 10.1 6 Noroeste 15 Oeste 0 922.4 -0.1 42
2020-03-14 19:00:00 12.6 11 Oeste 20 Oeste 0 922.3 -0.5 41
2020-03-14 18:00:00 14.7 10 Oeste 21 Oeste 0 922.3 -1 39
2020-03-14 17:00:00 17.2 8 Noroeste 17 Noroeste 0 922.5 -1.6 27
2020-03-14 16:00:00 16 3 Nordeste 12 Sudeste 0 922.8 -2 49
2020-03-14 15:00:00 14.2 6 Este 14 Este 0 923.3 -2.3 58
2020-03-14 14:00:00 13 6 Este 13 Este 0 924.1 -2.1 65
2020-03-14 13:00:00 10 5 Este 10 Este 0 924.8 -1.2 80
2020-03-14 12:00:00 6.2 3 Nordeste 9 Este 0 925.6 -0.2 94
2020-03-14 11:00:00 4.2 3 Este 9 Este 0 926.2 0.6 96
2020-03-14 10:00:00 3.1 3 Este 8 Sudeste 0 926 0.8 96
2020-03-14 09:00:00 2.6 4 Sudoeste 8 Sudoeste 0 925.8 0.8 96
2020-03-14 08:00:00 0.6 3 Oeste 8 Oeste 0 925.6 0.8 97
2020-03-14 07:00:00 1.2 3 Oeste 5 Oeste 0 925.2 0.2 97
2020-03-14 06:00:00 1.2 3 Sudoeste 8 Noroeste 0 925 -0.4 97
2020-03-14 05:00:00 1.8 4 Noroeste 11 Noroeste 0 924.8 -0.6 96
2020-03-14 04:00:00 1.5 4 Noroeste 12 Oeste 0 925 -0.7 94
2020-03-14 03:00:00 2.6 6 Oeste 19 Oeste 0 925.4 -0.4 95
2020-03-14 02:00:00 2.6 10 Noroeste 20 Noroeste 0 925.4 -0.3 94
2020-03-14 01:00:00 3.6 8 Oeste 19 Oeste 0 925.7 0.3 95
2020-03-14 00:00:00 4.5 6 Oeste 21 Oeste 0 925.8 1.2 93
2020-03-13 23:00:00 5.2 11 Noroeste 25 Oeste 0 925.7 1.2 93
2020-03-13 22:00:00 6.1 14 Oeste 24 Oeste 0 925.4 1.9 90
2020-03-13 21:00:00 7.2 11 Oeste 30 Oeste 0 924.6 1.1 86
2020-03-13 20:00:00 8 11 Oeste 23 Oeste 0 924.5 1 84
2020-03-13 19:00:00 9.3 10 Noroeste 23 Noroeste 0 923.5 -0.2 79
2020-03-13 18:00:00 10.8 10 Oeste 32 Oeste 0 923.5 -0.8 74
2020-03-13 17:00:00 12.7 13 Noroeste 28 Oeste 0 923.5 -1.4 68
2020-03-13 16:00:00 13.2 11 Oeste 23 Oeste 0 923.7 -1.4 69
2020-03-13 15:00:00 11.8 14 Oeste 23 Oeste 0 924.3 -0.6 72
2020-03-13 14:00:00 11.3 9 Oeste 20 Oeste 0 924.9 0 75
2020-03-13 13:00:00 11.1 8 Noroeste 19 Noroeste 0 925.1 0.4 75
2020-03-13 12:00:00 11.5 8 Este 18 Este 0 924.9 0.6 75
2020-03-13 11:00:00 9.2 2 Norte 8 Oeste 0 924.9 1 87
2020-03-13 10:00:00 7.3 2 Oeste 6 Nordeste 0 924.7 1 92
2020-03-13 09:00:00 6.4 3 Oeste 5 Noroeste 0 924.3 0.5 95
2020-03-13 08:00:00 5.6 0 Calma 6 Oeste 0 923.9 0.2 95
2020-03-13 07:00:00 5.4 6 Oeste 12 Noroeste 0 923.7 -0.4 96
2020-03-13 06:00:00 5.4 7 Oeste 15 Noroeste 0 923.8 -0.5 96
2020-03-13 05:00:00 5.4 9 Noroeste 19 Noroeste 0 923.7 -0.6 95
2020-03-13 04:00:00 5.4 11 Oeste 21 Oeste 0 924.1 -0.4 96
2020-03-13 03:00:00 5.5 10 Oeste 20 Oeste 0 924.3 -0.4 96
2020-03-13 02:00:00 5.8 11 Oeste 21 Oeste 0 924.3 -0.3 95
2020-03-13 01:00:00 6.1 10 Oeste 22 Oeste 0 924.5 0 95
2020-03-13 00:00:00 6.1 10 Oeste 21 Oeste 0 924.7 0.2 95
2020-03-12 23:00:00 6.4 11 Oeste 22 Oeste 0 924.6 0.4 94
2020-03-12 22:00:00 6.9 12 Oeste 24 Noroeste 0 924.5 0.8 93
2020-03-12 21:00:00 8 11 Oeste 30 Oeste 0 924.5 0.9 90
2020-03-12 20:00:00 8.7 10 Oeste 26 Oeste 0 924.2 0.8 87
2020-03-12 19:00:00 9.6 15 Oeste 29 Oeste 0 923.7 0.2 83
2020-03-12 18:00:00 11.8 13 Oeste 31 Oeste 0 923.6 -0.3 76
2020-03-12 17:00:00 13.5 12 Oeste 27 Oeste 0 923.4 -1.4 71
2020-03-12 16:00:00 14 10 Oeste 23 Oeste 0 923.5 -1.9 70
2020-03-12 15:00:00 13.6 10 Oeste 26 Oeste 0 923.9 -1.6 71
2020-03-12 14:00:00 12.3 12 Oeste 25 Oeste 0 924.8 -0.7 76
2020-03-12 13:00:00 10.6 10 Oeste 21 Oeste 0 925.4 -0.1 85
2020-03-12 12:00:00 10.2 10 Oeste 24 Oeste 0 925.5 0.3 85
2020-03-12 11:00:00 9.9 10 Oeste 21 Oeste 0 925.5 0.9 88
2020-03-12 10:00:00 9 10 Oeste 19 Oeste 0 925.5 1.1 90
2020-03-12 09:00:00 8.4 8 Oeste 14 Oeste 0 925.2 0.8 92
2020-03-12 08:00:00 8.4 6 Oeste 15 Oeste 0 924.6 0.3 93
2020-03-12 07:00:00 8.4 8 Oeste 16 Oeste 0 924.4 -0.4 93
2020-03-12 06:00:00 7.8 8 Oeste 14 Oeste 0 924.4 -1.1 91
2020-03-12 05:00:00 8.7 8 Oeste 18 Oeste 0 924.3 -1.1 93
2020-03-12 04:00:00 9.1 8 Oeste 18 Oeste 0 924.8 -0.7 94
2020-03-12 03:00:00 9 10 Oeste 20 Noroeste 0 925.5 -0.3 94
2020-03-12 02:00:00 9.2 10 Noroeste 19 Noroeste 0 925.4 -0.3 91
2020-03-12 01:00:00 9.7 9 Noroeste 15 Noroeste 0 925.5 -0.3 86
2020-03-12 00:00:00 10.5 9 Noroeste 20 Oeste 0 925.8 0 84
2020-03-11 23:00:00 11.3 12 Oeste 18 Oeste 0 925.7 -0.1 73
2020-03-11 22:00:00 11.9 8 Oeste 12 Oeste 0 925.8 0.3 69
2020-03-11 21:00:00 13.4 9 Oeste 20 Oeste 0 925.8 0.5 63
2020-03-11 20:00:00 14.8 12 Oeste 20 Oeste 0 925.8 0.6 56
2020-03-11 19:00:00 16.9 6 Oeste 19 Noroeste 0 925.5 0.4 49
2020-03-11 18:00:00 18.4 8 Noroeste 22 Noroeste 0 925.3 -0.1 44
2020-03-11 17:00:00 20.8 12 Noroeste 25 Noroeste 0 925.2 -0.9 43
2020-03-11 16:00:00 21.9 15 Oeste 35 Oeste 0 925.1 -1.7 36
2020-03-11 15:00:00 22.3 14 Oeste 26 Sudoeste 0 925.4 -1.9 32
2020-03-11 14:00:00 20.5 6 Este 13 Este 0 926.1 -1.6 45
2020-03-11 13:00:00 18.2 4 Nordeste 13 Sudeste 0 926.8 -0.8 51
2020-03-11 12:00:00 16.3 6 Nordeste 13 Este 0 927.3 -0.3 51
2020-03-11 11:00:00 14.3 4 Este 10 Nordeste 0 927.7 0.1 58
2020-03-11 10:00:00 11.9 5 Norte 10 Nordeste 0 927.6 0.1 67
2020-03-11 09:00:00 9 3 Noroeste 8 Noroeste 0 927.6 0 79
2020-03-11 08:00:00 4.8 5 Oeste 9 Noroeste 0 927.6 -0.1 87
2020-03-11 07:00:00 5.2 6 Noroeste 13 Noroeste 0 927.5 -0.5 84
2020-03-11 06:00:00 5.3 8 Noroeste 14 Noroeste 0 927.6 -0.9 82
2020-03-11 05:00:00 5.4 10 Noroeste 16 Noroeste 0 927.7 -1.3 78
2020-03-11 04:00:00 5.3 9 Noroeste 16 Noroeste 0 928 -1.4 76
2020-03-11 03:00:00 6 9 Noroeste 14 Noroeste 0 928.5 -0.9 73
2020-03-11 02:00:00 6.4 8 Noroeste 13 Noroeste 0 929 -0.5 72
2020-03-11 01:00:00 7.4 9 Oeste 15 Noroeste 0 929.4 -0.1 73
2020-03-11 00:00:00 7.7 5 Noroeste 11 Noroeste 0 929.4 0 76
2020-03-10 23:00:00 8.5 6 Noroeste 15 Oeste 0 929.5 0.4 78
2020-03-10 22:00:00 10.6 8 Oeste 22 Oeste 0 929.5 0.8 71
2020-03-10 21:00:00 11.3 9 Oeste 21 Noroeste 0 929.4 0.9 73
2020-03-10 20:00:00 12.6 10 Oeste 18 Oeste 0 929.1 0.5 67
2020-03-10 19:00:00 14.7 7 Oeste 18 Noroeste 0 928.7 0.2 59
2020-03-10 18:00:00 16.5 9 Oeste 22 Norte 0 928.5 -0.3 50
2020-03-10 17:00:00 18.8 10 Noroeste 25 Noroeste 0 928.6 -0.6 40
2020-03-10 16:00:00 19.6 9 Noroeste 24 Noroeste 0 928.5 -1.5 32
2020-03-10 15:00:00 19.9 9 Noroeste 26 Noroeste 0 928.8 -1.5 27
2020-03-10 14:00:00 19 5 Sudoeste 16 Sudoeste 0 929.2 -1.4 23
2020-03-10 13:00:00 16.9 6 Este 14 Este 0 930 -0.4 34
2020-03-10 12:00:00 15.8 6 Este 12 Este 0 930.3 0.4 41
2020-03-10 11:00:00 12.9 4 Sudeste 8 Sudeste 0 930.6 0.9 52
2020-03-10 10:00:00 8.7 4 Sudeste 13 Noroeste 0 930.4 0.8 53
2020-03-10 09:00:00 4.6 6 Noroeste 13 Noroeste 0 929.9 0.2 64
2020-03-10 08:00:00 4.2 3 Noroeste 8 Noroeste 0 929.7 0.1 62
2020-03-10 07:00:00 3.9 4 Oeste 15 Noroeste 0 929.6 -0.2 62
2020-03-10 06:00:00 3.7 8 Noroeste 13 Noroeste 0 929.7 -0.7 64
2020-03-10 05:00:00 4.3 9 Noroeste 13 Noroeste 0 929.6 -1.1 61
2020-03-10 04:00:00 4.7 9 Noroeste 13 Noroeste 0 929.8 -1.2 60
2020-03-10 03:00:00 4.5 10 Noroeste 15 Noroeste 0 930.4 -1 63
2020-03-10 02:00:00 4.5 9 Noroeste 15 Noroeste 0 930.7 -0.8 69
2020-03-10 01:00:00 5 9 Noroeste 15 Noroeste 0 931 -0.3 72
2020-03-10 00:00:00 5.1 9 Noroeste 12 Oeste 0 931.4 0.2 73